sensor_id;sensor_type;location;lat;lon;timestamp;P1;durP1;ratioP1;P2;durP2;ratioP2
6420;SDS011;3243;50.958;7.012;2023-08-08T00:00:03;3.10;;;2.40;;
6420;SDS011;3243;50.958;7.012;2023-08-08T00:02:31;4.63;;;2.27;;
6420;SDS011;3243;50.958;7.012;2023-08-08T00:04:58;4.33;;;2.10;;
6420;SDS011;3243;50.958;7.012;2023-08-08T00:07:25;3.70;;;2.17;;
6420;SDS011;3243;50.958;7.012;2023-08-08T00:09:56;3.43;;;1.90;;
6420;SDS011;3243;50.958;7.012;2023-08-08T00:12:23;5.23;;;2.03;;
6420;SDS011;3243;50.958;7.012;2023-08-08T00:14:50;4.97;;;2.30;;
6420;SDS011;3243;50.958;7.012;2023-08-08T00:17:17;4.90;;;2.30;;
6420;SDS011;3243;50.958;7.012;2023-08-08T00:19:44;2.40;;;1.80;;
6420;SDS011;3243;50.958;7.012;2023-08-08T00:22:11;3.43;;;2.10;;
6420;SDS011;3243;50.958;7.012;2023-08-08T00:24:38;5.20;;;2.20;;
6420;SDS011;3243;50.958;7.012;2023-08-08T00:27:05;4.10;;;2.37;;
6420;SDS011;3243;50.958;7.012;2023-08-08T00:29:32;3.27;;;2.20;;
6420;SDS011;3243;50.958;7.012;2023-08-08T00:31:59;4.97;;;2.30;;
6420;SDS011;3243;50.958;7.012;2023-08-08T00:34:27;3.53;;;2.20;;
6420;SDS011;3243;50.958;7.012;2023-08-08T00:36:54;4.43;;;2.10;;
6420;SDS011;3243;50.958;7.012;2023-08-08T00:39:21;3.73;;;2.30;;
6420;SDS011;3243;50.958;7.012;2023-08-08T00:41:48;3.37;;;2.67;;
6420;SDS011;3243;50.958;7.012;2023-08-08T00:44:14;2.77;;;2.47;;
6420;SDS011;3243;50.958;7.012;2023-08-08T00:46:41;5.17;;;2.60;;
6420;SDS011;3243;50.958;7.012;2023-08-08T00:49:08;4.53;;;2.63;;
6420;SDS011;3243;50.958;7.012;2023-08-08T00:51:35;3.03;;;2.47;;
6420;SDS011;3243;50.958;7.012;2023-08-08T00:54:03;3.90;;;2.60;;
6420;SDS011;3243;50.958;7.012;2023-08-08T00:56:30;3.47;;;2.67;;
6420;SDS011;3243;50.958;7.012;2023-08-08T00:58:58;10.87;;;2.60;;
6420;SDS011;3243;50.958;7.012;2023-08-08T01:01:25;3.77;;;2.43;;
6420;SDS011;3243;50.958;7.012;2023-08-08T01:03:52;3.33;;;2.50;;
6420;SDS011;3243;50.958;7.012;2023-08-08T01:06:23;4.57;;;2.37;;
6420;SDS011;3243;50.958;7.012;2023-08-08T01:09:09;5.23;;;2.60;;
6420;SDS011;3243;50.958;7.012;2023-08-08T01:11:58;4.20;;;2.60;;
6420;SDS011;3243;50.958;7.012;2023-08-08T01:14:27;3.77;;;2.40;;
6420;SDS011;3243;50.958;7.012;2023-08-08T01:16:55;4.07;;;2.57;;
6420;SDS011;3243;50.958;7.012;2023-08-08T01:19:27;4.33;;;2.40;;
6420;SDS011;3243;50.958;7.012;2023-08-08T01:21:56;3.87;;;2.77;;
6420;SDS011;3243;50.958;7.012;2023-08-08T01:24:27;2.30;;;2.10;;
6420;SDS011;3243;50.958;7.012;2023-08-08T01:26:56;2.60;;;2.40;;
6420;SDS011;3243;50.958;7.012;2023-08-08T01:29:23;2.63;;;2.30;;
6420;SDS011;3243;50.958;7.012;2023-08-08T01:31:50;4.67;;;2.30;;
6420;SDS011;3243;50.958;7.012;2023-08-08T01:34:17;3.83;;;2.97;;
6420;SDS011;3243;50.958;7.012;2023-08-08T01:36:46;4.07;;;2.40;;
6420;SDS011;3243;50.958;7.012;2023-08-08T01:39:19;7.03;;;2.47;;
6420;SDS011;3243;50.958;7.012;2023-08-08T01:41:50;2.77;;;2.30;;
6420;SDS011;3243;50.958;7.012;2023-08-08T01:44:17;3.60;;;2.33;;
6420;SDS011;3243;50.958;7.012;2023-08-08T01:46:44;3.23;;;2.40;;
6420;SDS011;3243;50.958;7.012;2023-08-08T01:49:12;2.73;;;2.20;;
6420;SDS011;3243;50.958;7.012;2023-08-08T01:51:39;3.27;;;2.10;;
6420;SDS011;3243;50.958;7.012;2023-08-08T01:54:06;4.23;;;2.40;;
6420;SDS011;3243;50.958;7.012;2023-08-08T01:56:33;3.63;;;2.33;;
6420;SDS011;3243;50.958;7.012;2023-08-08T01:59:00;4.50;;;2.20;;
6420;SDS011;3243;50.958;7.012;2023-08-08T02:01:27;3.40;;;2.20;;
6420;SDS011;3243;50.958;7.012;2023-08-08T02:03:54;4.00;;;2.40;;
6420;SDS011;3243;50.958;7.012;2023-08-08T02:06:21;5.97;;;2.40;;
6420;SDS011;3243;50.958;7.012;2023-08-08T02:08:48;2.70;;;2.40;;
6420;SDS011;3243;50.958;7.012;2023-08-08T02:11:15;5.10;;;2.50;;
6420;SDS011;3243;50.958;7.012;2023-08-08T02:13:42;2.87;;;2.20;;
6420;SDS011;3243;50.958;7.012;2023-08-08T02:16:09;5.60;;;2.80;;
6420;SDS011;3243;50.958;7.012;2023-08-08T02:18:36;4.30;;;2.90;;
6420;SDS011;3243;50.958;7.012;2023-08-08T02:21:07;3.17;;;2.30;;
6420;SDS011;3243;50.958;7.012;2023-08-08T02:23:34;3.23;;;2.40;;
6420;SDS011;3243;50.958;7.012;2023-08-08T02:26:00;5.90;;;2.40;;
6420;SDS011;3243;50.958;7.012;2023-08-08T02:28:27;4.03;;;2.40;;
6420;SDS011;3243;50.958;7.012;2023-08-08T02:30:54;4.10;;;2.47;;
6420;SDS011;3243;50.958;7.012;2023-08-08T02:33:21;4.13;;;2.33;;
6420;SDS011;3243;50.958;7.012;2023-08-08T02:35:48;4.47;;;2.70;;
6420;SDS011;3243;50.958;7.012;2023-08-08T02:38:15;2.97;;;2.17;;
6420;SDS011;3243;50.958;7.012;2023-08-08T02:40:42;3.77;;;2.60;;
6420;SDS011;3243;50.958;7.012;2023-08-08T02:43:09;3.77;;;2.50;;
6420;SDS011;3243;50.958;7.012;2023-08-08T02:45:37;3.43;;;2.60;;
6420;SDS011;3243;50.958;7.012;2023-08-08T02:48:04;4.03;;;2.50;;
6420;SDS011;3243;50.958;7.012;2023-08-08T02:50:31;5.17;;;2.37;;
6420;SDS011;3243;50.958;7.012;2023-08-08T02:52:58;4.47;;;2.43;;
6420;SDS011;3243;50.958;7.012;2023-08-08T02:55:25;3.87;;;2.47;;
6420;SDS011;3243;50.958;7.012;2023-08-08T02:57:52;5.10;;;2.73;;
6420;SDS011;3243;50.958;7.012;2023-08-08T03:00:19;4.13;;;2.40;;
6420;SDS011;3243;50.958;7.012;2023-08-08T03:02:46;5.67;;;2.63;;
6420;SDS011;3243;50.958;7.012;2023-08-08T03:05:13;4.53;;;2.50;;
6420;SDS011;3243;50.958;7.012;2023-08-08T03:07:40;3.53;;;2.77;;
6420;SDS011;3243;50.958;7.012;2023-08-08T03:10:07;4.77;;;2.40;;
6420;SDS011;3243;50.958;7.012;2023-08-08T03:12:35;3.87;;;2.40;;
6420;SDS011;3243;50.958;7.012;2023-08-08T03:15:04;4.63;;;2.60;;
6420;SDS011;3243;50.958;7.012;2023-08-08T03:17:31;5.50;;;2.50;;
6420;SDS011;3243;50.958;7.012;2023-08-08T03:19:58;3.37;;;2.27;;
6420;SDS011;3243;50.958;7.012;2023-08-08T03:22:25;5.80;;;2.60;;
6420;SDS011;3243;50.958;7.012;2023-08-08T03:24:52;5.53;;;2.60;;
6420;SDS011;3243;50.958;7.012;2023-08-08T03:27:19;3.47;;;2.93;;
6420;SDS011;3243;50.958;7.012;2023-08-08T03:29:46;4.13;;;2.40;;
6420;SDS011;3243;50.958;7.012;2023-08-08T03:32:13;4.13;;;2.30;;
6420;SDS011;3243;50.958;7.012;2023-08-08T03:34:40;5.40;;;2.83;;
6420;SDS011;3243;50.958;7.012;2023-08-08T03:37:07;4.70;;;2.60;;
6420;SDS011;3243;50.958;7.012;2023-08-08T03:39:34;3.67;;;2.23;;
6420;SDS011;3243;50.958;7.012;2023-08-08T03:42:01;5.03;;;2.63;;
6420;SDS011;3243;50.958;7.012;2023-08-08T03:44:28;4.13;;;2.70;;
6420;SDS011;3243;50.958;7.012;2023-08-08T03:46:55;5.97;;;2.57;;
6420;SDS011;3243;50.958;7.012;2023-08-08T03:49:42;6.53;;;3.47;;
6420;SDS011;3243;50.958;7.012;2023-08-08T03:52:08;4.27;;;2.40;;
6420;SDS011;3243;50.958;7.012;2023-08-08T03:54:36;5.97;;;2.90;;
6420;SDS011;3243;50.958;7.012;2023-08-08T03:57:03;3.63;;;2.60;;
6420;SDS011;3243;50.958;7.012;2023-08-08T03:59:30;7.17;;;2.30;;
6420;SDS011;3243;50.958;7.012;2023-08-08T04:01:57;4.17;;;2.20;;
6420;SDS011;3243;50.958;7.012;2023-08-08T04:04:24;6.33;;;2.50;;
6420;SDS011;3243;50.958;7.012;2023-08-08T04:06:51;4.30;;;2.07;;
6420;SDS011;3243;50.958;7.012;2023-08-08T04:09:18;4.37;;;2.30;;
6420;SDS011;3243;50.958;7.012;2023-08-08T04:11:45;3.90;;;2.40;;
6420;SDS011;3243;50.958;7.012;2023-08-08T04:14:12;7.33;;;2.33;;
6420;SDS011;3243;50.958;7.012;2023-08-08T04:16:38;4.10;;;2.30;;
6420;SDS011;3243;50.958;7.012;2023-08-08T04:19:06;4.37;;;2.50;;
6420;SDS011;3243;50.958;7.012;2023-08-08T04:21:32;5.67;;;2.20;;
6420;SDS011;3243;50.958;7.012;2023-08-08T04:24:00;4.63;;;2.20;;
6420;SDS011;3243;50.958;7.012;2023-08-08T04:26:27;6.30;;;2.70;;
6420;SDS011;3243;50.958;7.012;2023-08-08T04:28:54;4.37;;;2.33;;
6420;SDS011;3243;50.958;7.012;2023-08-08T04:31:21;5.27;;;2.40;;
6420;SDS011;3243;50.958;7.012;2023-08-08T04:33:51;8.00;;;2.43;;
6420;SDS011;3243;50.958;7.012;2023-08-08T04:36:25;6.77;;;2.53;;
6420;SDS011;3243;50.958;7.012;2023-08-08T04:38:52;4.57;;;2.20;;
6420;SDS011;3243;50.958;7.012;2023-08-08T04:41:20;4.10;;;2.30;;
6420;SDS011;3243;50.958;7.012;2023-08-08T04:43:46;5.63;;;2.30;;
6420;SDS011;3243;50.958;7.012;2023-08-08T04:46:14;5.30;;;2.77;;
6420;SDS011;3243;50.958;7.012;2023-08-08T04:48:40;4.57;;;3.03;;
6420;SDS011;3243;50.958;7.012;2023-08-08T04:51:08;4.67;;;3.00;;
6420;SDS011;3243;50.958;7.012;2023-08-08T04:53:35;3.20;;;2.30;;
6420;SDS011;3243;50.958;7.012;2023-08-08T04:56:02;8.17;;;2.60;;
6420;SDS011;3243;50.958;7.012;2023-08-08T04:58:29;3.73;;;2.53;;
6420;SDS011;3243;50.958;7.012;2023-08-08T05:00:56;5.70;;;2.70;;
6420;SDS011;3243;50.958;7.012;2023-08-08T05:03:23;5.03;;;2.87;;
6420;SDS011;3243;50.958;7.012;2023-08-08T05:05:51;4.93;;;2.77;;
6420;SDS011;3243;50.958;7.012;2023-08-08T05:08:17;3.97;;;2.70;;
6420;SDS011;3243;50.958;7.012;2023-08-08T05:10:44;3.97;;;2.60;;
6420;SDS011;3243;50.958;7.012;2023-08-08T05:13:12;6.97;;;3.00;;
6420;SDS011;3243;50.958;7.012;2023-08-08T05:15:39;7.60;;;3.10;;
6420;SDS011;3243;50.958;7.012;2023-08-08T05:18:06;10.90;;;3.50;;
6420;SDS011;3243;50.958;7.012;2023-08-08T05:20:33;9.60;;;4.10;;
6420;SDS011;3243;50.958;7.012;2023-08-08T05:23:00;6.33;;;3.07;;
6420;SDS011;3243;50.958;7.012;2023-08-08T05:25:27;6.67;;;2.90;;
6420;SDS011;3243;50.958;7.012;2023-08-08T05:27:54;8.23;;;2.90;;
6420;SDS011;3243;50.958;7.012;2023-08-08T05:30:21;6.80;;;3.03;;
6420;SDS011;3243;50.958;7.012;2023-08-08T05:32:48;9.87;;;3.47;;
6420;SDS011;3243;50.958;7.012;2023-08-08T05:35:15;6.60;;;2.87;;
6420;SDS011;3243;50.958;7.012;2023-08-08T05:37:42;7.13;;;3.33;;
6420;SDS011;3243;50.958;7.012;2023-08-08T05:40:09;7.60;;;3.13;;
6420;SDS011;3243;50.958;7.012;2023-08-08T05:42:39;6.13;;;3.07;;
6420;SDS011;3243;50.958;7.012;2023-08-08T05:45:06;9.00;;;3.37;;
6420;SDS011;3243;50.958;7.012;2023-08-08T05:47:34;5.80;;;3.27;;
6420;SDS011;3243;50.958;7.012;2023-08-08T05:50:01;6.83;;;3.07;;
6420;SDS011;3243;50.958;7.012;2023-08-08T05:52:28;8.13;;;3.53;;
6420;SDS011;3243;50.958;7.012;2023-08-08T05:54:55;8.30;;;3.93;;
6420;SDS011;3243;50.958;7.012;2023-08-08T05:57:25;7.77;;;3.33;;
6420;SDS011;3243;50.958;7.012;2023-08-08T05:59:52;6.97;;;3.30;;
6420;SDS011;3243;50.958;7.012;2023-08-08T06:02:20;6.60;;;3.20;;
6420;SDS011;3243;50.958;7.012;2023-08-08T06:04:46;8.60;;;2.80;;
6420;SDS011;3243;50.958;7.012;2023-08-08T06:07:14;6.63;;;3.53;;
6420;SDS011;3243;50.958;7.012;2023-08-08T06:09:40;4.03;;;2.70;;
6420;SDS011;3243;50.958;7.012;2023-08-08T06:12:08;8.17;;;2.60;;
6420;SDS011;3243;50.958;7.012;2023-08-08T06:14:35;5.80;;;2.97;;
6420;SDS011;3243;50.958;7.012;2023-08-08T06:17:02;7.00;;;3.03;;
6420;SDS011;3243;50.958;7.012;2023-08-08T06:19:29;7.90;;;3.10;;
6420;SDS011;3243;50.958;7.012;2023-08-08T06:21:56;9.13;;;2.80;;
6420;SDS011;3243;50.958;7.012;2023-08-08T06:24:23;12.73;;;3.40;;
6420;SDS011;3243;50.958;7.012;2023-08-08T06:26:50;6.47;;;2.60;;
6420;SDS011;3243;50.958;7.012;2023-08-08T06:29:17;7.70;;;2.80;;
6420;SDS011;3243;50.958;7.012;2023-08-08T06:31:44;6.50;;;2.80;;
6420;SDS011;3243;50.958;7.012;2023-08-08T06:34:11;7.97;;;2.67;;
6420;SDS011;3243;50.958;7.012;2023-08-08T06:36:37;4.60;;;2.33;;
6420;SDS011;3243;50.958;7.012;2023-08-08T06:39:04;5.05;;;2.47;;
6420;SDS011;3243;50.958;7.012;2023-08-08T06:41:32;9.57;;;2.60;;
6420;SDS011;3243;50.958;7.012;2023-08-08T06:43:58;8.23;;;3.17;;
6420;SDS011;3243;50.958;7.012;2023-08-08T06:46:25;9.53;;;3.07;;
6420;SDS011;3243;50.958;7.012;2023-08-08T06:48:52;4.27;;;2.30;;
6420;SDS011;3243;50.958;7.012;2023-08-08T06:51:23;5.83;;;2.80;;
6420;SDS011;3243;50.958;7.012;2023-08-08T06:53:51;7.17;;;2.60;;
6420;SDS011;3243;50.958;7.012;2023-08-08T06:56:18;10.87;;;2.73;;
6420;SDS011;3243;50.958;7.012;2023-08-08T06:58:45;6.27;;;2.60;;
6420;SDS011;3243;50.958;7.012;2023-08-08T07:01:12;6.80;;;3.03;;
6420;SDS011;3243;50.958;7.012;2023-08-08T07:03:40;13.43;;;3.07;;
6420;SDS011;3243;50.958;7.012;2023-08-08T07:06:07;4.90;;;2.87;;
6420;SDS011;3243;50.958;7.012;2023-08-08T07:08:33;5.97;;;2.50;;
6420;SDS011;3243;50.958;7.012;2023-08-08T07:11:00;6.10;;;2.70;;
6420;SDS011;3243;50.958;7.012;2023-08-08T07:13:27;5.73;;;2.80;;
6420;SDS011;3243;50.958;7.012;2023-08-08T07:15:54;7.13;;;2.50;;
6420;SDS011;3243;50.958;7.012;2023-08-08T07:18:21;10.60;;;3.30;;
6420;SDS011;3243;50.958;7.012;2023-08-08T07:20:48;7.63;;;3.30;;
6420;SDS011;3243;50.958;7.012;2023-08-08T07:23:15;10.60;;;3.93;;
6420;SDS011;3243;50.958;7.012;2023-08-08T07:25:43;10.07;;;3.50;;
6420;SDS011;3243;50.958;7.012;2023-08-08T07:28:11;8.07;;;3.33;;
6420;SDS011;3243;50.958;7.012;2023-08-08T07:30:38;7.87;;;2.70;;
6420;SDS011;3243;50.958;7.012;2023-08-08T07:33:04;5.73;;;2.80;;
6420;SDS011;3243;50.958;7.012;2023-08-08T07:35:32;11.83;;;3.83;;
6420;SDS011;3243;50.958;7.012;2023-08-08T07:37:59;8.10;;;2.87;;
6420;SDS011;3243;50.958;7.012;2023-08-08T07:40:26;5.93;;;2.60;;
6420;SDS011;3243;50.958;7.012;2023-08-08T07:42:53;6.57;;;2.60;;
6420;SDS011;3243;50.958;7.012;2023-08-08T07:45:20;7.77;;;2.90;;
6420;SDS011;3243;50.958;7.012;2023-08-08T07:47:47;10.53;;;3.07;;
6420;SDS011;3243;50.958;7.012;2023-08-08T07:50:14;7.90;;;3.33;;
6420;SDS011;3243;50.958;7.012;2023-08-08T07:52:41;5.43;;;2.90;;
6420;SDS011;3243;50.958;7.012;2023-08-08T07:55:08;6.17;;;2.90;;
6420;SDS011;3243;50.958;7.012;2023-08-08T07:57:35;7.40;;;2.50;;
6420;SDS011;3243;50.958;7.012;2023-08-08T08:00:02;9.13;;;2.80;;
6420;SDS011;3243;50.958;7.012;2023-08-08T08:02:42;6.30;;;2.77;;
6420;SDS011;3243;50.958;7.012;2023-08-08T08:05:10;7.93;;;2.90;;
6420;SDS011;3243;50.958;7.012;2023-08-08T08:07:37;7.80;;;3.20;;
6420;SDS011;3243;50.958;7.012;2023-08-08T08:10:06;7.43;;;3.20;;
6420;SDS011;3243;50.958;7.012;2023-08-08T08:12:35;9.03;;;3.27;;
6420;SDS011;3243;50.958;7.012;2023-08-08T08:15:02;6.20;;;3.23;;
6420;SDS011;3243;50.958;7.012;2023-08-08T08:17:30;8.03;;;3.10;;
6420;SDS011;3243;50.958;7.012;2023-08-08T08:19:57;7.13;;;3.23;;
6420;SDS011;3243;50.958;7.012;2023-08-08T08:22:24;8.83;;;3.00;;
6420;SDS011;3243;50.958;7.012;2023-08-08T08:24:51;6.83;;;3.90;;
6420;SDS011;3243;50.958;7.012;2023-08-08T08:27:18;7.83;;;3.53;;
6420;SDS011;3243;50.958;7.012;2023-08-08T08:29:45;8.17;;;3.40;;
6420;SDS011;3243;50.958;7.012;2023-08-08T08:32:12;6.27;;;3.20;;
6420;SDS011;3243;50.958;7.012;2023-08-08T08:34:39;5.93;;;3.23;;
6420;SDS011;3243;50.958;7.012;2023-08-08T08:37:06;9.53;;;4.07;;
6420;SDS011;3243;50.958;7.012;2023-08-08T08:39:33;6.77;;;4.00;;
6420;SDS011;3243;50.958;7.012;2023-08-08T08:42:00;10.20;;;3.77;;
6420;SDS011;3243;50.958;7.012;2023-08-08T08:44:32;10.90;;;3.67;;
6420;SDS011;3243;50.958;7.012;2023-08-08T08:47:02;13.77;;;4.67;;
6420;SDS011;3243;50.958;7.012;2023-08-08T08:49:30;8.20;;;3.87;;
6420;SDS011;3243;50.958;7.012;2023-08-08T08:51:57;8.63;;;3.90;;
6420;SDS011;3243;50.958;7.012;2023-08-08T08:54:28;10.03;;;3.63;;
6420;SDS011;3243;50.958;7.012;2023-08-08T08:56:56;5.67;;;3.63;;
6420;SDS011;3243;50.958;7.012;2023-08-08T08:59:24;8.97;;;3.47;;
6420;SDS011;3243;50.958;7.012;2023-08-08T09:01:51;9.90;;;3.40;;
6420;SDS011;3243;50.958;7.012;2023-08-08T09:04:19;9.10;;;3.80;;
6420;SDS011;3243;50.958;7.012;2023-08-08T09:06:48;9.47;;;3.50;;
6420;SDS011;3243;50.958;7.012;2023-08-08T09:09:16;10.10;;;4.00;;
6420;SDS011;3243;50.958;7.012;2023-08-08T09:11:47;10.97;;;3.90;;
6420;SDS011;3243;50.958;7.012;2023-08-08T09:14:20;9.20;;;3.70;;
6420;SDS011;3243;50.958;7.012;2023-08-08T09:16:49;9.90;;;3.63;;
6420;SDS011;3243;50.958;7.012;2023-08-08T09:19:19;6.93;;;3.30;;
6420;SDS011;3243;50.958;7.012;2023-08-08T09:21:47;6.93;;;3.60;;
6420;SDS011;3243;50.958;7.012;2023-08-08T09:24:15;10.57;;;3.27;;
6420;SDS011;3243;50.958;7.012;2023-08-08T09:26:42;7.67;;;3.57;;
6420;SDS011;3243;50.958;7.012;2023-08-08T09:29:11;8.07;;;3.30;;
6420;SDS011;3243;50.958;7.012;2023-08-08T09:31:40;6.70;;;2.90;;
6420;SDS011;3243;50.958;7.012;2023-08-08T09:34:07;5.33;;;3.60;;
6420;SDS011;3243;50.958;7.012;2023-08-08T09:36:34;6.67;;;3.60;;
6420;SDS011;3243;50.958;7.012;2023-08-08T09:39:01;6.37;;;3.50;;
6420;SDS011;3243;50.958;7.012;2023-08-08T09:41:28;6.37;;;3.17;;
6420;SDS011;3243;50.958;7.012;2023-08-08T09:43:55;7.90;;;3.30;;
6420;SDS011;3243;50.958;7.012;2023-08-08T09:46:22;5.33;;;3.10;;
6420;SDS011;3243;50.958;7.012;2023-08-08T09:48:49;7.37;;;3.17;;
6420;SDS011;3243;50.958;7.012;2023-08-08T09:51:17;7.13;;;3.67;;
6420;SDS011;3243;50.958;7.012;2023-08-08T09:53:46;6.57;;;3.40;;
6420;SDS011;3243;50.958;7.012;2023-08-08T09:56:13;6.40;;;2.90;;
6420;SDS011;3243;50.958;7.012;2023-08-08T09:58:42;4.73;;;2.80;;
6420;SDS011;3243;50.958;7.012;2023-08-08T10:01:10;5.60;;;3.30;;
6420;SDS011;3243;50.958;7.012;2023-08-08T10:03:39;5.20;;;3.10;;
6420;SDS011;3243;50.958;7.012;2023-08-08T10:06:09;4.70;;;2.67;;
6420;SDS011;3243;50.958;7.012;2023-08-08T10:08:36;8.57;;;2.80;;
6420;SDS011;3243;50.958;7.012;2023-08-08T10:11:04;5.43;;;2.97;;
6420;SDS011;3243;50.958;7.012;2023-08-08T10:13:33;7.73;;;2.87;;
6420;SDS011;3243;50.958;7.012;2023-08-08T10:16:07;5.47;;;2.50;;
6420;SDS011;3243;50.958;7.012;2023-08-08T10:18:34;6.83;;;3.40;;
6420;SDS011;3243;50.958;7.012;2023-08-08T10:21:03;6.23;;;2.67;;
6420;SDS011;3243;50.958;7.012;2023-08-08T10:23:35;5.67;;;2.53;;
6420;SDS011;3243;50.958;7.012;2023-08-08T10:26:03;8.03;;;3.00;;
6420;SDS011;3243;50.958;7.012;2023-08-08T10:28:31;4.87;;;2.90;;
6420;SDS011;3243;50.958;7.012;2023-08-08T10:31:00;7.72;;;3.22;;
6420;SDS011;3243;50.958;7.012;2023-08-08T10:33:41;7.95;;;2.95;;
6420;SDS011;3243;50.958;7.012;2023-08-08T10:36:11;7.97;;;2.97;;
6420;SDS011;3243;50.958;7.012;2023-08-08T10:41:10;7.07;;;2.72;;
6420;SDS011;3243;50.958;7.012;2023-08-08T10:43:38;7.28;;;2.60;;
6420;SDS011;3243;50.958;7.012;2023-08-08T10:46:07;7.30;;;2.70;;
6420;SDS011;3243;50.958;7.012;2023-08-08T10:48:50;8.40;;;2.20;;
6420;SDS011;3243;50.958;7.012;2023-08-08T10:51:22;6.90;;;2.63;;
6420;SDS011;3243;50.958;7.012;2023-08-08T10:53:52;7.57;;;2.15;;
6420;SDS011;3243;50.958;7.012;2023-08-08T10:56:19;5.00;;;2.42;;
6420;SDS011;3243;50.958;7.012;2023-08-08T10:58:48;6.40;;;2.50;;
6420;SDS011;3243;50.958;7.012;2023-08-08T11:01:15;8.15;;;3.15;;
6420;SDS011;3243;50.958;7.012;2023-08-08T11:03:43;7.85;;;3.00;;
6420;SDS011;3243;50.958;7.012;2023-08-08T11:06:11;7.50;;;2.93;;
6420;SDS011;3243;50.958;7.012;2023-08-08T11:08:38;7.65;;;2.72;;
6420;SDS011;3243;50.958;7.012;2023-08-08T11:11:05;6.93;;;2.47;;
6420;SDS011;3243;50.958;7.012;2023-08-08T11:13:33;6.93;;;2.40;;
6420;SDS011;3243;50.958;7.012;2023-08-08T11:16:00;6.18;;;2.30;;
6420;SDS011;3243;50.958;7.012;2023-08-08T11:18:30;8.93;;;2.35;;
6420;SDS011;3243;50.958;7.012;2023-08-08T11:20:57;7.90;;;2.25;;
6420;SDS011;3243;50.958;7.012;2023-08-08T11:23:44;4.93;;;2.35;;
6420;SDS011;3243;50.958;7.012;2023-08-08T11:26:12;6.47;;;2.40;;
6420;SDS011;3243;50.958;7.012;2023-08-08T11:28:48;6.47;;;2.08;;
6420;SDS011;3243;50.958;7.012;2023-08-08T11:31:21;5.90;;;2.60;;
6420;SDS011;3243;50.958;7.012;2023-08-08T11:33:48;4.13;;;2.20;;
6420;SDS011;3243;50.958;7.012;2023-08-08T11:36:16;4.67;;;1.97;;
6420;SDS011;3243;50.958;7.012;2023-08-08T11:38:43;3.70;;;2.28;;
6420;SDS011;3243;50.958;7.012;2023-08-08T11:41:10;4.10;;;2.00;;
6420;SDS011;3243;50.958;7.012;2023-08-08T11:43:38;4.22;;;2.55;;
6420;SDS011;3243;50.958;7.012;2023-08-08T11:46:13;7.63;;;2.20;;
6420;SDS011;3243;50.958;7.012;2023-08-08T11:48:41;6.68;;;2.35;;
6420;SDS011;3243;50.958;7.012;2023-08-08T11:51:09;4.50;;;2.20;;
6420;SDS011;3243;50.958;7.012;2023-08-08T11:53:36;8.55;;;2.80;;
6420;SDS011;3243;50.958;7.012;2023-08-08T11:56:14;6.05;;;2.10;;
6420;SDS011;3243;50.958;7.012;2023-08-08T11:58:42;6.17;;;2.10;;
6420;SDS011;3243;50.958;7.012;2023-08-08T12:01:09;5.68;;;2.42;;
6420;SDS011;3243;50.958;7.012;2023-08-08T12:03:40;3.70;;;2.10;;
6420;SDS011;3243;50.958;7.012;2023-08-08T12:06:13;4.93;;;2.10;;
6420;SDS011;3243;50.958;7.012;2023-08-08T12:08:44;5.33;;;2.40;;
6420;SDS011;3243;50.958;7.012;2023-08-08T12:11:12;3.73;;;2.30;;
6420;SDS011;3243;50.958;7.012;2023-08-08T12:13:41;6.43;;;2.43;;
6420;SDS011;3243;50.958;7.012;2023-08-08T12:16:09;5.27;;;2.07;;
6420;SDS011;3243;50.958;7.012;2023-08-08T12:18:43;5.43;;;2.15;;
6420;SDS011;3243;50.958;7.012;2023-08-08T12:21:11;3.97;;;2.20;;
6420;SDS011;3243;50.958;7.012;2023-08-08T12:23:38;4.90;;;1.97;;
6420;SDS011;3243;50.958;7.012;2023-08-08T12:26:06;6.17;;;2.00;;
6420;SDS011;3243;50.958;7.012;2023-08-08T12:28:34;6.30;;;2.30;;
6420;SDS011;3243;50.958;7.012;2023-08-08T12:31:01;6.23;;;2.23;;
6420;SDS011;3243;50.958;7.012;2023-08-08T12:33:28;5.07;;;2.20;;
6420;SDS011;3243;50.958;7.012;2023-08-08T12:35:55;3.88;;;1.90;;
6420;SDS011;3243;50.958;7.012;2023-08-08T12:38:23;5.97;;;2.20;;
6420;SDS011;3243;50.958;7.012;2023-08-08T12:40:49;4.97;;;2.17;;
6420;SDS011;3243;50.958;7.012;2023-08-08T12:43:17;4.47;;;2.20;;
6420;SDS011;3243;50.958;7.012;2023-08-08T12:45:44;5.63;;;2.50;;
6420;SDS011;3243;50.958;7.012;2023-08-08T12:48:12;6.90;;;2.43;;
6420;SDS011;3243;50.958;7.012;2023-08-08T12:50:39;4.57;;;2.37;;
6420;SDS011;3243;50.958;7.012;2023-08-08T12:53:07;4.10;;;1.80;;
6420;SDS011;3243;50.958;7.012;2023-08-08T12:55:34;5.17;;;2.50;;
6420;SDS011;3243;50.958;7.012;2023-08-08T12:58:02;7.23;;;3.10;;
6420;SDS011;3243;50.958;7.012;2023-08-08T13:00:29;3.97;;;2.55;;
6420;SDS011;3243;50.958;7.012;2023-08-08T13:02:57;4.87;;;2.70;;
6420;SDS011;3243;50.958;7.012;2023-08-08T13:05:26;4.97;;;3.50;;
6420;SDS011;3243;50.958;7.012;2023-08-08T13:07:53;5.70;;;3.03;;
6420;SDS011;3243;50.958;7.012;2023-08-08T13:10:21;8.97;;;3.03;;
6420;SDS011;3243;50.958;7.012;2023-08-08T13:12:48;5.93;;;3.17;;
6420;SDS011;3243;50.958;7.012;2023-08-08T13:15:15;6.40;;;2.90;;
6420;SDS011;3243;50.958;7.012;2023-08-08T13:17:43;7.50;;;3.70;;
6420;SDS011;3243;50.958;7.012;2023-08-08T13:20:10;4.03;;;2.50;;
6420;SDS011;3243;50.958;7.012;2023-08-08T13:22:38;4.20;;;2.63;;
6420;SDS011;3243;50.958;7.012;2023-08-08T13:25:06;7.27;;;3.10;;
6420;SDS011;3243;50.958;7.012;2023-08-08T13:27:32;5.23;;;2.60;;
6420;SDS011;3243;50.958;7.012;2023-08-08T13:30:00;6.67;;;2.97;;
6420;SDS011;3243;50.958;7.012;2023-08-08T13:32:27;5.13;;;2.77;;
6420;SDS011;3243;50.958;7.012;2023-08-08T13:34:54;6.07;;;2.87;;
6420;SDS011;3243;50.958;7.012;2023-08-08T13:37:22;5.07;;;2.30;;
6420;SDS011;3243;50.958;7.012;2023-08-08T13:39:49;7.35;;;3.00;;
6420;SDS011;3243;50.958;7.012;2023-08-08T13:42:16;7.07;;;2.77;;
6420;SDS011;3243;50.958;7.012;2023-08-08T13:44:43;7.20;;;4.70;;
6420;SDS011;3243;50.958;7.012;2023-08-08T13:47:10;6.07;;;2.80;;
6420;SDS011;3243;50.958;7.012;2023-08-08T13:49:37;4.70;;;2.50;;
6420;SDS011;3243;50.958;7.012;2023-08-08T13:52:04;4.47;;;2.30;;
6420;SDS011;3243;50.958;7.012;2023-08-08T13:54:32;4.37;;;2.37;;
6420;SDS011;3243;50.958;7.012;2023-08-08T13:56:58;8.20;;;1.83;;
6420;SDS011;3243;50.958;7.012;2023-08-08T13:59:25;5.73;;;2.10;;
6420;SDS011;3243;50.958;7.012;2023-08-08T14:01:53;4.88;;;2.38;;
6420;SDS011;3243;50.958;7.012;2023-08-08T14:04:20;3.20;;;1.88;;
6420;SDS011;3243;50.958;7.012;2023-08-08T14:06:47;7.57;;;2.15;;
6420;SDS011;3243;50.958;7.012;2023-08-08T14:09:14;4.70;;;2.00;;
6420;SDS011;3243;50.958;7.012;2023-08-08T14:11:44;6.10;;;2.03;;
6420;SDS011;3243;50.958;7.012;2023-08-08T14:14:11;4.95;;;2.08;;
6420;SDS011;3243;50.958;7.012;2023-08-08T14:16:38;3.95;;;1.98;;
6420;SDS011;3243;50.958;7.012;2023-08-08T14:19:05;6.47;;;2.30;;
6420;SDS011;3243;50.958;7.012;2023-08-08T14:21:33;3.47;;;2.20;;
6420;SDS011;3243;50.958;7.012;2023-08-08T14:24:00;4.77;;;2.60;;
6420;SDS011;3243;50.958;7.012;2023-08-08T14:26:28;6.83;;;2.60;;
6420;SDS011;3243;50.958;7.012;2023-08-08T14:28:55;7.03;;;2.30;;
6420;SDS011;3243;50.958;7.012;2023-08-08T14:31:22;6.45;;;2.13;;
6420;SDS011;3243;50.958;7.012;2023-08-08T14:33:49;5.28;;;1.95;;
6420;SDS011;3243;50.958;7.012;2023-08-08T14:36:16;4.75;;;2.05;;
6420;SDS011;3243;50.958;7.012;2023-08-08T14:38:43;6.97;;;2.28;;
6420;SDS011;3243;50.958;7.012;2023-08-08T14:41:10;4.00;;;2.05;;
6420;SDS011;3243;50.958;7.012;2023-08-08T14:43:37;6.05;;;3.00;;
6420;SDS011;3243;50.958;7.012;2023-08-08T14:46:03;6.90;;;3.67;;
6420;SDS011;3243;50.958;7.012;2023-08-08T14:48:30;7.63;;;3.45;;
6420;SDS011;3243;50.958;7.012;2023-08-08T14:50:59;5.85;;;2.90;;
6420;SDS011;3243;50.958;7.012;2023-08-08T14:53:27;7.70;;;2.97;;
6420;SDS011;3243;50.958;7.012;2023-08-08T14:55:54;6.63;;;2.30;;
6420;SDS011;3243;50.958;7.012;2023-08-08T14:58:21;4.85;;;2.13;;
6420;SDS011;3243;50.958;7.012;2023-08-08T15:00:51;6.13;;;2.35;;
6420;SDS011;3243;50.958;7.012;2023-08-08T15:03:18;3.75;;;2.22;;
6420;SDS011;3243;50.958;7.012;2023-08-08T15:05:46;4.35;;;2.40;;
6420;SDS011;3243;50.958;7.012;2023-08-08T15:08:15;3.75;;;1.98;;
6420;SDS011;3243;50.958;7.012;2023-08-08T15:10:42;6.85;;;2.80;;
6420;SDS011;3243;50.958;7.012;2023-08-08T15:13:09;6.88;;;2.10;;
6420;SDS011;3243;50.958;7.012;2023-08-08T15:15:36;4.88;;;2.15;;
6420;SDS011;3243;50.958;7.012;2023-08-08T15:18:04;3.63;;;2.08;;
6420;SDS011;3243;50.958;7.012;2023-08-08T15:20:31;4.40;;;1.90;;